Time,TemperatureF,DewpointF,PressureIn,WindDirection,WindDirectionDegrees,WindSpeedMPH,WindSpeedGustMPH,Humidity,HourlyPrecipIn,Conditions,Clouds,dailyrainin,SolarRadiationWatts/m^2,SoftwareType,DateUTC
2013-03-14 00:12:00,32.0,14.0,-100.00,SW,225,4.0,6.0,46,0.00,,,0.00,0.000000,,2013-03-14 06:12:00,
2013-03-14 00:22:00,32.0,14.0,-100.00,SW,225,4.0,6.0,46,0.00,,,0.00,0.000000,,2013-03-14 06:22:00,
2013-03-14 00:32:00,32.0,14.0,-100.00,SW,225,4.0,6.0,46,0.00,,,0.00,0.000000,,2013-03-14 06:32:00,
2013-03-14 00:42:00,32.0,14.0,-100.00,SW,225,4.0,6.0,46,0.00,,,0.00,0.000000,,2013-03-14 06:42:00,
2013-03-14 01:12:00,31.0,15.0,-100.00,SW,234,5.0,7.0,52,0.00,,,0.00,0.000000,,2013-03-14 07:12:00,
2013-03-14 01:22:00,31.0,15.0,-100.00,SW,234,5.0,7.0,52,0.00,,,0.00,0.000000,,2013-03-14 07:22:00,
2013-03-14 01:32:00,31.0,15.0,-100.00,SW,234,5.0,7.0,52,0.00,,,0.00,0.000000,,2013-03-14 07:32:00,
2013-03-14 01:42:00,31.0,15.0,-100.00,SW,234,5.0,7.0,52,0.00,,,0.00,0.000000,,2013-03-14 07:42:00,
2013-03-14 02:12:00,29.0,14.0,-100.00,SW,233,5.0,7.0,53,0.00,,,0.00,0.000000,,2013-03-14 08:12:00,
2013-03-14 02:21:00,29.0,14.0,-100.00,SW,233,5.0,7.0,53,0.00,,,0.00,0.000000,,2013-03-14 08:21:00,
2013-03-14 02:32:00,29.0,14.0,-100.00,SW,233,5.0,7.0,53,0.00,,,0.00,0.000000,,2013-03-14 08:32:00,
2013-03-14 02:41:00,29.0,14.0,-100.00,SW,233,5.0,7.0,53,0.00,,,0.00,0.000000,,2013-03-14 08:41:00,
2013-03-14 03:12:00,29.0,15.0,-100.00,WSW,237,4.0,8.0,55,0.00,,,0.00,0.000000,,2013-03-14 09:12:00,
2013-03-14 03:22:00,29.0,15.0,-100.00,WSW,237,4.0,8.0,55,0.00,,,0.00,0.000000,,2013-03-14 09:22:00,
2013-03-14 03:32:00,29.0,15.0,-100.00,WSW,237,4.0,8.0,55,0.00,,,0.00,0.000000,,2013-03-14 09:32:00,
2013-03-14 03:42:00,29.0,15.0,-100.00,WSW,237,4.0,8.0,55,0.00,,,0.00,0.000000,,2013-03-14 09:42:00,
2013-03-14 04:12:00,28.0,14.0,-100.00,SW,228,5.0,8.0,54,0.00,,,0.00,0.000000,,2013-03-14 10:12:00,
2013-03-14 04:22:00,28.0,14.0,-100.00,SW,228,5.0,8.0,54,0.00,,,0.00,0.000000,,2013-03-14 10:22:00,
2013-03-14 04:32:00,28.0,14.0,-100.00,SW,228,5.0,8.0,54,0.00,,,0.00,0.000000,,2013-03-14 10:32:00,
2013-03-14 04:42:00,28.0,14.0,-100.00,SW,228,5.0,8.0,54,0.00,,,0.00,0.000000,,2013-03-14 10:42:00,
2013-03-14 05:12:00,30.0,13.0,-100.00,SW,218,6.0,9.0,49,0.00,,,0.00,0.000000,,2013-03-14 11:12:00,
2013-03-14 05:22:00,30.0,13.0,-100.00,SW,218,6.0,9.0,49,0.00,,,0.00,0.000000,,2013-03-14 11:22:00,
2013-03-14 05:32:00,30.0,13.0,-100.00,SW,218,6.0,9.0,49,0.00,,,0.00,0.000000,,2013-03-14 11:32:00,
2013-03-14 05:42:00,30.0,13.0,-100.00,SW,218,6.0,9.0,49,0.00,,,0.00,0.000000,,2013-03-14 11:42:00,
2013-03-14 06:12:00,27.0,15.0,-100.00,NNE,33,1.0,7.0,60,0.00,,,0.00,0.000000,,2013-03-14 12:12:00,
2013-03-14 06:22:00,27.0,15.0,-100.00,NNE,33,1.0,7.0,60,0.00,,,0.00,0.000000,,2013-03-14 12:22:00,
2013-03-14 06:32:00,27.0,15.0,-100.00,NNE,33,1.0,7.0,60,0.00,,,0.00,0.000000,,2013-03-14 12:32:00,
2013-03-14 06:42:00,27.0,15.0,-100.00,NNE,33,1.0,7.0,60,0.00,,,0.00,0.000000,,2013-03-14 12:42:00,
2013-03-14 07:12:00,28.0,15.0,-100.00,SW,236,2.0,6.0,57,0.00,,,0.00,0.000000,,2013-03-14 13:12:00,
2013-03-14 07:22:00,28.0,15.0,-100.00,SW,236,2.0,6.0,57,0.00,,,0.00,0.000000,,2013-03-14 13:22:00,
2013-03-14 07:32:00,28.0,15.0,-100.00,SW,236,2.0,6.0,57,0.00,,,0.00,0.000000,,2013-03-14 13:32:00,
2013-03-14 07:42:00,28.0,15.0,-100.00,SW,236,2.0,6.0,57,0.00,,,0.00,0.000000,,2013-03-14 13:42:00,
2013-03-14 08:12:00,26.0,13.0,-100.00,SW,226,7.0,8.0,57,0.00,,,0.00,10.000000,,2013-03-14 14:12:00,
2013-03-14 08:22:00,26.0,13.0,-100.00,SW,226,7.0,8.0,57,0.00,,,0.00,10.000000,,2013-03-14 14:22:00,
2013-03-14 08:32:00,26.0,13.0,-100.00,SW,226,7.0,8.0,57,0.00,,,0.00,10.000000,,2013-03-14 14:32:00,
2013-03-14 08:42:00,26.0,13.0,-100.00,SW,226,7.0,8.0,57,0.00,,,0.00,10.000000,,2013-03-14 14:42:00,
2013-03-14 09:12:00,35.0,14.0,-100.00,SSE,153,1.0,10.0,42,0.00,,,0.00,187.000000,,2013-03-14 15:12:00,
2013-03-14 09:22:00,35.0,14.0,-100.00,SSE,153,1.0,10.0,42,0.00,,,0.00,187.000000,,2013-03-14 15:22:00,
2013-03-14 09:42:00,35.0,14.0,-100.00,SSE,153,1.0,10.0,42,0.00,,,0.00,187.000000,,2013-03-14 15:42:00,
2013-03-14 10:02:00,34.0,18.0,-100.00,NE,54,5.0,7.0,51,0.00,,,0.00,419.000000,,2013-03-14 16:02:00,
2013-03-14 10:12:00,34.0,18.0,-100.00,NE,54,5.0,7.0,51,0.00,,,0.00,419.000000,,2013-03-14 16:12:00,
2013-03-14 10:22:00,34.0,18.0,-100.00,NE,54,5.0,7.0,51,0.00,,,0.00,419.000000,,2013-03-14 16:22:00,
2013-03-14 10:32:00,34.0,18.0,-100.00,NE,54,5.0,7.0,51,0.00,,,0.00,419.000000,,2013-03-14 16:32:00,
2013-03-14 11:12:00,37.0,18.0,-100.00,ENE,61,0.0,5.0,45,-99.99,,,0.00,648.000000,,2013-03-14 17:12:00,
2013-03-14 11:23:00,37.0,18.0,-100.00,ENE,61,0.0,5.0,45,-99.99,,,0.00,648.000000,,2013-03-14 17:23:00,
2013-03-14 11:32:00,37.0,18.0,-100.00,ENE,61,0.0,5.0,45,-99.99,,,0.00,648.000000,,2013-03-14 17:32:00,
2013-03-14 11:41:00,37.0,18.0,-100.00,ENE,61,0.0,5.0,45,-99.99,,,0.00,648.000000,,2013-03-14 17:41:00,
2013-03-14 12:12:00,44.0,22.0,-100.00,SW,236,2.0,5.0,41,0.00,,,0.00,747.000000,,2013-03-14 18:12:00,
2013-03-14 12:22:00,44.0,22.0,-100.00,SW,236,2.0,5.0,41,0.00,,,0.00,747.000000,,2013-03-14 18:22:00,
2013-03-14 12:32:00,44.0,22.0,-100.00,SW,236,2.0,5.0,41,0.00,,,0.00,747.000000,,2013-03-14 18:32:00,
2013-03-14 12:42:00,44.0,22.0,-100.00,SW,236,2.0,5.0,41,0.00,,,0.00,747.000000,,2013-03-14 18:42:00,
2013-03-14 13:12:00,53.0,23.0,-100.00,South,184,0.0,4.0,31,0.00,,,0.00,1008.000000,,2013-03-14 19:12:00,
2013-03-14 13:22:00,53.0,23.0,-100.00,South,184,0.0,4.0,31,0.00,,,0.00,1008.000000,,2013-03-14 19:22:00,
2013-03-14 13:32:00,53.0,23.0,-100.00,South,184,0.0,4.0,31,0.00,,,0.00,1008.000000,,2013-03-14 19:32:00,
2013-03-14 13:42:00,53.0,23.0,-100.00,South,184,0.0,4.0,31,0.00,,,0.00,1008.000000,,2013-03-14 19:42:00,
2013-03-14 15:12:00,52.0,17.0,-100.00,WNW,303,5.0,0.0,25,-99.99,,,-99.99,0.000000,,2013-03-14 21:12:00,
2013-03-14 15:22:00,52.0,17.0,-100.00,WNW,303,5.0,0.0,25,-99.99,,,-99.99,0.000000,,2013-03-14 21:22:00,
2013-03-14 15:32:00,52.0,17.0,-100.00,WNW,303,5.0,0.0,25,-99.99,,,-99.99,0.000000,,2013-03-14 21:32:00,
2013-03-14 15:43:00,52.0,17.0,-100.00,WNW,303,5.0,0.0,25,-99.99,,,-99.99,0.000000,,2013-03-14 21:43:00,
2013-03-14 16:12:00,49.0,15.0,-100.00,NW,311,6.0,11.0,25,0.00,,,-99.99,889.000000,,2013-03-14 22:12:00,
2013-03-14 16:23:00,49.0,15.0,-100.00,NW,311,6.0,11.0,25,0.00,,,-99.99,889.000000,,2013-03-14 22:23:00,
2013-03-14 16:32:00,49.0,15.0,-100.00,NW,311,6.0,11.0,25,0.00,,,-99.99,889.000000,,2013-03-14 22:32:00,
2013-03-14 16:42:00,49.0,15.0,-100.00,NW,311,6.0,11.0,25,0.00,,,-99.99,889.000000,,2013-03-14 22:42:00,
2013-03-14 17:12:00,51.0,12.0,-100.00,NW,304,5.0,9.0,21,0.00,,,-99.99,712.000000,,2013-03-14 23:12:00,
2013-03-14 17:22:00,51.0,12.0,-100.00,NW,304,5.0,9.0,21,0.00,,,-99.99,712.000000,,2013-03-14 23:22:00,
2013-03-14 17:32:00,51.0,12.0,-100.00,NW,304,5.0,9.0,21,0.00,,,-99.99,712.000000,,2013-03-14 23:32:00,
2013-03-14 17:42:00,51.0,12.0,-100.00,NW,304,5.0,9.0,21,0.00,,,-99.99,712.000000,,2013-03-14 23:42:00,
2013-03-14 18:12:00,48.0,15.0,-100.00,WNW,282,10.0,15.0,26,0.00,,,-99.99,494.000000,,2013-03-15 00:12:00,
2013-03-14 18:22:00,48.0,15.0,-100.00,WNW,282,10.0,15.0,26,0.00,,,-99.99,494.000000,,2013-03-15 00:22:00,
2013-03-14 18:32:00,48.0,15.0,-100.00,WNW,282,10.0,15.0,26,0.00,,,-99.99,494.000000,,2013-03-15 00:32:00,
2013-03-14 18:42:00,48.0,15.0,-100.00,WNW,282,10.0,15.0,26,0.00,,,-99.99,494.000000,,2013-03-15 00:42:00,
2013-03-14 19:11:00,46.0,16.0,-100.00,WNW,282,8.0,19.0,29,0.00,,,-99.99,112.000000,,2013-03-15 01:11:00,
2013-03-14 19:22:00,46.0,16.0,-100.00,WNW,282,8.0,19.0,29,0.00,,,-99.99,112.000000,,2013-03-15 01:22:00,
2013-03-14 19:32:00,46.0,16.0,-100.00,WNW,282,8.0,19.0,29,0.00,,,-99.99,112.000000,,2013-03-15 01:32:00,
2013-03-14 19:42:00,46.0,16.0,-100.00,WNW,282,8.0,19.0,29,0.00,,,-99.99,112.000000,,2013-03-15 01:42:00,
2013-03-14 20:12:00,41.0,13.0,-100.00,West,260,5.0,13.0,31,0.00,,,-99.99,7.000000,,2013-03-15 02:12:00,
2013-03-14 20:22:00,41.0,13.0,-100.00,West,260,5.0,13.0,31,0.00,,,-99.99,7.000000,,2013-03-15 02:22:00,
2013-03-14 20:32:00,41.0,13.0,-100.00,West,260,5.0,13.0,31,0.00,,,-99.99,7.000000,,2013-03-15 02:32:00,
2013-03-14 20:42:00,41.0,13.0,-100.00,West,260,5.0,13.0,31,0.00,,,-99.99,7.000000,,2013-03-15 02:42:00,
2013-03-14 21:12:00,41.0,13.0,-100.00,WNW,284,4.0,10.0,32,0.00,,,-99.99,0.000000,,2013-03-15 03:12:00,
2013-03-14 21:22:00,41.0,13.0,-100.00,WNW,284,4.0,10.0,32,0.00,,,-99.99,0.000000,,2013-03-15 03:22:00,
2013-03-14 21:32:00,41.0,13.0,-100.00,WNW,284,4.0,10.0,32,0.00,,,-99.99,0.000000,,2013-03-15 03:32:00,
2013-03-14 21:42:00,41.0,13.0,-100.00,WNW,284,4.0,10.0,32,0.00,,,-99.99,0.000000,,2013-03-15 03:42:00,
2013-03-14 22:12:00,40.0,14.0,-100.00,SW,227,3.0,7.0,34,0.00,,,-99.99,0.000000,,2013-03-15 04:12:00,
2013-03-14 22:22:00,40.0,14.0,-100.00,SW,227,3.0,7.0,34,0.00,,,-99.99,0.000000,,2013-03-15 04:22:00,
2013-03-14 22:32:00,40.0,14.0,-100.00,SW,227,3.0,7.0,34,0.00,,,-99.99,0.000000,,2013-03-15 04:32:00,
2013-03-14 22:42:00,40.0,14.0,-100.00,SW,227,3.0,7.0,34,0.00,,,-99.99,0.000000,,2013-03-15 04:42:00,
2013-03-14 23:12:00,38.0,12.0,-100.00,SW,226,3.0,6.0,34,0.00,,,-99.99,0.000000,,2013-03-15 05:12:00,
2013-03-14 23:22:00,38.0,12.0,-100.00,SW,226,3.0,6.0,34,0.00,,,-99.99,0.000000,,2013-03-15 05:22:00,
2013-03-14 23:32:00,38.0,12.0,-100.00,SW,226,3.0,6.0,34,0.00,,,-99.99,0.000000,,2013-03-15 05:32:00,
2013-03-14 23:42:00,38.0,12.0,-100.00,SW,226,3.0,6.0,34,0.00,,,-99.99,0.000000,,2013-03-15 05:42:00,